createdAt,value
2018-11-04T00:00:32.585Z,1021.24
2018-11-04T00:01:32.602Z,1021.18
2018-11-04T00:02:32.620Z,1021.21
2018-11-04T00:03:32.636Z,1021.18
2018-11-04T00:04:32.654Z,1021.17
2018-11-04T00:05:32.664Z,1021.14
2018-11-04T00:06:32.685Z,1021.09
2018-11-04T00:07:32.697Z,1021.06
2018-11-04T00:09:32.729Z,1021.08
2018-11-04T00:10:32.745Z,1021.04
2018-11-04T00:11:32.765Z,1021.03
2018-11-04T00:12:32.781Z,1020.99
2018-11-04T00:13:32.797Z,1021.02
2018-11-04T00:14:32.859Z,1020.98
2018-11-04T00:15:32.831Z,1020.96
2018-11-04T00:16:32.843Z,1020.94
2018-11-04T00:17:32.861Z,1020.95
2018-11-04T00:18:32.875Z,1020.96
2018-11-04T00:19:32.894Z,1020.96
2018-11-04T00:20:32.914Z,1020.92
2018-11-04T00:21:32.926Z,1020.97
2018-11-04T00:22:32.940Z,1020.98
2018-11-04T00:23:32.953Z,1020.98
2018-11-04T00:25:32.986Z,1020.9
2018-11-04T00:26:33.008Z,1020.92
2018-11-04T00:27:33.018Z,1020.88
2018-11-04T00:28:33.040Z,1020.87
2018-11-04T00:29:33.060Z,1020.9
2018-11-04T00:30:33.069Z,1020.89
2018-11-04T00:31:33.089Z,1020.87
2018-11-04T00:32:33.102Z,1020.87
2018-11-04T00:33:33.119Z,1020.9
2018-11-04T00:34:33.174Z,1020.91
2018-11-04T00:35:33.152Z,1020.94
2018-11-04T00:36:33.169Z,1020.89
2018-11-04T00:37:33.182Z,1020.9
2018-11-04T00:38:33.201Z,1020.95
2018-11-04T00:40:33.239Z,1020.85
2018-11-04T00:41:33.250Z,1020.82
2018-11-04T00:42:33.267Z,1020.83
2018-11-04T00:43:33.287Z,1020.8
2018-11-04T00:44:33.295Z,1020.77
2018-11-04T00:45:33.456Z,1020.74
2018-11-04T00:46:33.327Z,1020.73
2018-11-04T00:47:33.348Z,1020.73
2018-11-04T00:48:33.411Z,1020.69
2018-11-04T00:49:33.381Z,1020.71
2018-11-04T00:50:33.401Z,1020.63
2018-11-04T00:51:33.413Z,1020.68
2018-11-04T00:52:33.425Z,1020.64
2018-11-04T00:53:33.442Z,1020.63
2018-11-04T00:54:33.462Z,1020.64
2018-11-04T00:55:33.474Z,1020.63
2018-11-04T00:56:33.495Z,1020.66
2018-11-04T00:57:33.511Z,1020.6
2018-11-04T00:58:33.524Z,1020.62
2018-11-04T00:59:33.543Z,1020.61
2018-11-04T01:00:33.562Z,1020.57
2018-11-04T01:01:33.607Z,1020.57
2018-11-04T01:02:33.592Z,1020.54
2018-11-04T01:03:33.605Z,1020.47
2018-11-04T01:04:33.641Z,1020.53
2018-11-04T01:05:33.643Z,1020.51
2018-11-04T01:06:33.659Z,1020.46
2018-11-04T01:07:33.670Z,1020.42
2018-11-04T01:08:33.691Z,1020.39
2018-11-04T01:09:33.704Z,1020.38
2018-11-04T01:10:33.723Z,1020.38
2018-11-04T01:12:33.757Z,1020.33
2018-11-04T01:13:33.774Z,1020.31
2018-11-04T01:14:33.789Z,1020.29
2018-11-04T01:15:33.807Z,1020.24
2018-11-04T01:16:33.821Z,1020.28
2018-11-04T01:17:33.840Z,1020.24
2018-11-04T01:18:33.850Z,1020.24
2018-11-04T01:19:33.871Z,1020.25
2018-11-04T01:20:33.888Z,1020.22
2018-11-04T01:21:33.899Z,1020.21
2018-11-04T01:22:33.920Z,1020.18
2018-11-04T01:23:33.932Z,1020.21
2018-11-04T01:24:34.049Z,1020.19
2018-11-04T01:25:33.969Z,1020.14
2018-11-04T01:26:33.982Z,1020.11
2018-11-04T01:28:34.019Z,1020.09
2018-11-04T01:29:34.033Z,1020.1
2018-11-04T01:30:34.051Z,1020.09
2018-11-04T01:31:34.069Z,1020.14
2018-11-04T01:32:34.093Z,1020.12
2018-11-04T01:33:34.096Z,1020.1
2018-11-04T01:34:34.112Z,1020.1
2018-11-04T01:35:34.134Z,1020.07
2018-11-04T01:36:34.145Z,1020.1
2018-11-04T01:37:34.167Z,1020.08
2018-11-04T01:38:34.178Z,1020.05
2018-11-04T01:39:34.200Z,1020.04
2018-11-04T01:40:34.211Z,1020.02
2018-11-04T01:41:34.231Z,1020.02
2018-11-04T01:42:34.250Z,1020.02
2018-11-04T01:44:34.281Z,1019.98
2018-11-04T01:45:34.298Z,1020
2018-11-04T01:46:34.314Z,1019.97
2018-11-04T01:47:34.333Z,1019.99
2018-11-04T01:48:34.343Z,1019.96
2018-11-04T01:49:34.360Z,1019.97
2018-11-04T01:50:34.377Z,1019.95
2018-11-04T01:51:34.398Z,1019.93
2018-11-04T01:52:34.410Z,1019.97
2018-11-04T01:53:34.430Z,1019.98
2018-11-04T01:54:34.442Z,1019.96
2018-11-04T01:55:34.463Z,1019.91
2018-11-04T01:56:34.476Z,1019.95
2018-11-04T01:57:34.497Z,1019.94
2018-11-04T01:58:34.508Z,1019.89
2018-11-04T02:00:34.542Z,1019.86
2018-11-04T02:01:34.563Z,1019.85
2018-11-04T02:02:34.583Z,1019.87
2018-11-04T02:03:34.592Z,1019.86
2018-11-04T02:04:34.612Z,1019.84
2018-11-04T02:05:34.629Z,1019.83
2018-11-04T02:06:34.640Z,1019.81
2018-11-04T02:07:34.662Z,1019.8
2018-11-04T02:08:34.675Z,1019.78
2018-11-04T02:09:34.690Z,1019.8
2018-11-04T02:10:34.711Z,1019.76
2018-11-04T02:11:34.730Z,1019.73
2018-11-04T02:12:34.746Z,1019.79
2018-11-04T02:13:34.757Z,1019.77
2018-11-04T02:15:34.792Z,1019.72
2018-11-04T02:16:34.807Z,1019.69
2018-11-04T02:17:34.829Z,1019.7
2018-11-04T02:18:34.845Z,1019.7
2018-11-04T02:19:34.858Z,1019.69
2018-11-04T02:20:34.879Z,1019.64
2018-11-04T02:21:34.891Z,1019.64
2018-11-04T02:22:34.912Z,1019.64
2018-11-04T02:23:34.936Z,1019.61
2018-11-04T02:24:34.944Z,1019.64
2018-11-04T02:25:34.958Z,1019.6
2018-11-04T02:26:34.979Z,1019.54
2018-11-04T02:27:34.991Z,1019.49
2018-11-04T02:28:35.012Z,1019.53
2018-11-04T02:29:35.029Z,1019.51
2018-11-04T02:30:35.042Z,1019.48
2018-11-04T02:31:35.062Z,1019.44
2018-11-04T02:32:35.076Z,1019.45
2018-11-04T02:33:35.095Z,1019.41
2018-11-04T02:34:35.108Z,1019.43
2018-11-04T02:35:35.129Z,1019.41
2018-11-04T02:36:35.146Z,1019.41
2018-11-04T02:37:35.158Z,1019.37
2018-11-04T02:38:35.174Z,1019.38
2018-11-04T02:39:35.190Z,1019.39
2018-11-04T02:40:35.213Z,1019.41
2018-11-04T02:41:35.226Z,1019.37
2018-11-04T02:42:35.248Z,1019.39
2018-11-04T02:43:35.385Z,1019.36
2018-11-04T02:44:35.280Z,1019.41
2018-11-04T02:45:35.291Z,1019.4
2018-11-04T02:47:35.326Z,1019.38
2018-11-04T02:48:35.348Z,1019.39
2018-11-04T02:49:35.357Z,1019.39
2018-11-04T02:50:35.381Z,1019.32
2018-11-04T02:51:35.398Z,1019.36
2018-11-04T02:52:35.415Z,1019.32
2018-11-04T02:53:35.431Z,1019.33
2018-11-04T02:54:35.446Z,1019.29
2018-11-04T02:55:35.460Z,1019.34
2018-11-04T02:56:35.476Z,1019.32
2018-11-04T02:57:35.497Z,1019.29
2018-11-04T02:58:35.510Z,1019.31
2018-11-04T02:59:35.553Z,1019.3
2018-11-04T03:00:35.548Z,1019.32
2018-11-04T03:01:35.560Z,1019.3
2018-11-04T03:03:35.665Z,1019.25
2018-11-04T03:04:35.615Z,1019.25
2018-11-04T03:05:35.628Z,1019.28
2018-11-04T03:06:35.649Z,1019.31
2018-11-04T03:07:35.665Z,1019.23
2018-11-04T03:08:35.686Z,1019.27
2018-11-04T03:09:35.694Z,1019.24
2018-11-04T03:10:35.712Z,1019.22
2018-11-04T03:11:35.734Z,1019.17
2018-11-04T03:12:35.746Z,1019.19
2018-11-04T03:13:35.764Z,1019.15
2018-11-04T03:14:35.784Z,1019.09
2018-11-04T03:15:35.796Z,1019.1
2018-11-04T03:16:35.818Z,1019.13
2018-11-04T03:17:35.835Z,1019.11
2018-11-04T03:19:35.869Z,1019.07
2018-11-04T03:20:35.886Z,1019.04
2018-11-04T03:21:35.901Z,1019.02
2018-11-04T03:22:35.915Z,1019.04
2018-11-04T03:23:35.936Z,1019.03
2018-11-04T03:24:35.975Z,1018.99
2018-11-04T03:25:35.968Z,1018.95
2018-11-04T03:26:35.983Z,1018.94
2018-11-04T03:27:36.001Z,1018.91
2018-11-04T03:28:36.022Z,1018.93
2018-11-04T03:29:36.043Z,1018.91
2018-11-04T03:30:36.056Z,1018.89
2018-11-04T03:31:36.069Z,1018.85
2018-11-04T03:32:36.092Z,1018.87
2018-11-04T03:33:36.101Z,1018.91
2018-11-04T03:35:36.147Z,1018.83
2018-11-04T03:36:36.154Z,1018.86
2018-11-04T03:37:36.178Z,1018.83
2018-11-04T03:38:36.188Z,1018.83
2018-11-04T03:39:36.210Z,1018.87
2018-11-04T03:40:36.221Z,1018.81
2018-11-04T03:41:36.244Z,1018.8
2018-11-04T03:42:36.260Z,1018.8
2018-11-04T03:43:36.273Z,1018.77
2018-11-04T03:44:36.289Z,1018.8
2018-11-04T03:45:36.310Z,1018.8
2018-11-04T03:46:36.324Z,1018.8
2018-11-04T03:47:36.352Z,1018.77
2018-11-04T03:48:36.357Z,1018.76
2018-11-04T03:50:36.393Z,1018.76
2018-11-04T03:51:36.409Z,1018.74
2018-11-04T03:52:36.431Z,1018.75
2018-11-04T03:53:36.444Z,1018.73
2018-11-04T03:54:36.463Z,1018.76
2018-11-04T03:55:36.484Z,1018.75
2018-11-04T03:56:36.495Z,1018.74
2018-11-04T03:57:36.516Z,1018.73
2018-11-04T03:58:36.534Z,1018.7
2018-11-04T03:59:36.552Z,1018.74
2018-11-04T04:00:36.562Z,1018.67
2018-11-04T04:01:36.581Z,1018.68
2018-11-04T04:02:36.614Z,1018.64
2018-11-04T04:03:36.618Z,1018.61
2018-11-04T04:04:36.637Z,1018.63
2018-11-04T04:05:36.650Z,1018.63
2018-11-04T04:06:36.671Z,1018.68
2018-11-04T04:07:36.683Z,1018.63
2018-11-04T04:08:36.705Z,1018.6
2018-11-04T04:09:36.723Z,1018.54
2018-11-04T04:10:36.738Z,1018.55
2018-11-04T04:11:36.754Z,1018.54
2018-11-04T04:12:36.780Z,1018.53
2018-11-04T04:13:36.789Z,1018.49
2018-11-04T04:14:36.811Z,1018.47
2018-11-04T04:15:36.821Z,1018.47
2018-11-04T04:16:36.842Z,1018.47
2018-11-04T04:17:36.856Z,1018.44
2018-11-04T04:18:36.876Z,1018.46
2018-11-04T04:19:36.890Z,1018.44
2018-11-04T04:20:36.914Z,1018.44
2018-11-04T04:22:36.940Z,1018.41
2018-11-04T04:23:36.963Z,1018.37
2018-11-04T04:24:36.981Z,1018.37
2018-11-04T04:25:36.998Z,1018.38
2018-11-04T04:26:37.011Z,1018.36
2018-11-04T04:27:37.031Z,1018.35
2018-11-04T04:28:37.050Z,1018.31
2018-11-04T04:29:37.062Z,1018.26
2018-11-04T04:30:37.084Z,1018.25
2018-11-04T04:31:37.097Z,1018.3
2018-11-04T04:32:37.117Z,1018.27
2018-11-04T04:33:37.131Z,1018.22
2018-11-04T04:34:37.158Z,1018.23
2018-11-04T04:35:37.169Z,1018.25
2018-11-04T04:36:37.183Z,1018.22
2018-11-04T04:38:37.222Z,1018.24
2018-11-04T04:39:37.235Z,1018.28
2018-11-04T04:40:37.255Z,1018.22
2018-11-04T04:41:37.270Z,1018.23
2018-11-04T04:42:37.286Z,1018.22
2018-11-04T04:43:37.314Z,1018.23
2018-11-04T04:44:37.327Z,1018.22
2018-11-04T04:45:37.344Z,1018.2
2018-11-04T04:46:37.360Z,1018.19
2018-11-04T04:47:37.380Z,1018.19
2018-11-04T04:48:37.400Z,1018.21
2018-11-04T04:49:37.407Z,1018.24
2018-11-04T04:50:37.428Z,1018.24
2018-11-04T04:51:37.446Z,1018.23
2018-11-04T04:52:37.464Z,1018.21
2018-11-04T04:54:37.498Z,1018.19
2018-11-04T04:55:37.512Z,1018.17
2018-11-04T04:56:37.529Z,1018.16
2018-11-04T04:57:37.549Z,1018.14
2018-11-04T04:58:37.568Z,1018.12
2018-11-04T04:59:37.585Z,1018.14
2018-11-04T05:00:37.599Z,1018.14
2018-11-04T05:01:37.620Z,1018.11
2018-11-04T05:02:37.632Z,1018.12
2018-11-04T05:03:37.650Z,1018.07
2018-11-04T05:04:37.670Z,1018.05
2018-11-04T05:05:37.684Z,1018.06
2018-11-04T05:06:37.703Z,1018.06
2018-11-04T05:07:37.721Z,1018.04
2018-11-04T05:08:37.740Z,1017.98
2018-11-04T05:10:37.771Z,1018.03
2018-11-04T05:11:37.793Z,1018
2018-11-04T05:12:37.807Z,1018.01
2018-11-04T05:13:37.828Z,1018.02
2018-11-04T05:14:37.842Z,1017.98
2018-11-04T05:15:37.864Z,1017.99
2018-11-04T05:16:37.881Z,1017.97
2018-11-04T05:17:37.902Z,1018.02
2018-11-04T05:18:37.910Z,1017.99
2018-11-04T05:19:37.928Z,1017.97
2018-11-04T05:20:37.950Z,1017.96
2018-11-04T05:21:37.963Z,1017.99
2018-11-04T05:22:37.985Z,1017.97
2018-11-04T05:23:38.003Z,1017.93
2018-11-04T05:25:38.038Z,1017.94
2018-11-04T05:26:38.051Z,1017.94
2018-11-04T05:27:38.073Z,1017.93
2018-11-04T05:28:38.087Z,1017.94
2018-11-04T05:29:38.110Z,1017.93
2018-11-04T05:30:38.124Z,1017.92
2018-11-04T05:31:38.138Z,1017.93
2018-11-04T05:32:38.161Z,1017.85
2018-11-04T05:33:38.177Z,1017.86
2018-11-04T05:34:38.191Z,1017.83
2018-11-04T05:35:38.209Z,1017.82
2018-11-04T05:36:38.225Z,1017.83
2018-11-04T05:37:38.250Z,1017.88
2018-11-04T05:38:38.259Z,1017.85
2018-11-04T05:39:38.285Z,1017.83
2018-11-04T05:40:38.296Z,1017.84
2018-11-04T05:41:38.321Z,1017.81
2018-11-04T05:42:38.331Z,1017.79
2018-11-04T05:43:38.352Z,1017.8
2018-11-04T05:44:38.371Z,1017.85
2018-11-04T05:45:38.382Z,1017.87
2018-11-04T05:46:38.401Z,1017.93
2018-11-04T05:47:38.425Z,1017.93
2018-11-04T05:48:38.435Z,1017.94
2018-11-04T05:49:38.458Z,1017.93
2018-11-04T05:50:38.471Z,1017.87
2018-11-04T05:51:38.492Z,1017.89
2018-11-04T05:52:38.505Z,1017.93
2018-11-04T05:53:38.527Z,1017.94
2018-11-04T05:54:38.542Z,1017.95
2018-11-04T05:55:38.562Z,1017.94
2018-11-04T05:57:38.597Z,1017.97
2018-11-04T05:58:38.611Z,1017.99
2018-11-04T05:59:38.632Z,1017.97
2018-11-04T06:00:38.646Z,1017.95
2018-11-04T06:01:38.669Z,1018
2018-11-04T06:02:38.681Z,1018.03
2018-11-04T06:03:38.700Z,1017.94
2018-11-04T06:04:38.717Z,1017.95
2018-11-04T06:05:38.739Z,1017.95
2018-11-04T06:06:38.757Z,1017.98
2018-11-04T06:07:38.768Z,1017.97
2018-11-04T06:08:38.790Z,1017.97
2018-11-04T06:09:38.804Z,1017.96
2018-11-04T06:10:38.820Z,1017.95
2018-11-04T06:11:38.843Z,1017.99
2018-11-04T06:13:38.878Z,1018.01
2018-11-04T06:14:38.901Z,1018.07
2018-11-04T06:15:38.914Z,1018.09
2018-11-04T06:16:38.927Z,1018.08
2018-11-04T06:17:38.944Z,1018.1
2018-11-04T06:18:38.966Z,1018.13
2018-11-04T06:19:39.100Z,1018.12
2018-11-04T06:20:39.001Z,1018.15
2018-11-04T06:21:39.014Z,1018.14
2018-11-04T06:22:39.038Z,1018.11
2018-11-04T06:23:39.050Z,1018.12
2018-11-04T06:24:39.067Z,1018.1
2018-11-04T06:25:39.089Z,1018.12
2018-11-04T06:26:39.102Z,1018.09
2018-11-04T06:27:39.123Z,1018.11
2018-11-04T06:29:39.154Z,1018.08
2018-11-04T06:30:39.178Z,1018.07
2018-11-04T06:31:39.190Z,1018.08
2018-11-04T06:32:39.211Z,1018.12
2018-11-04T06:33:39.224Z,1018.13
2018-11-04T06:34:39.317Z,1018.11
2018-11-04T06:35:39.261Z,1018.08
2018-11-04T06:36:39.281Z,1018.09
2018-11-04T06:37:39.300Z,1018.08
2018-11-04T06:38:39.314Z,1018.09
2018-11-04T06:39:39.330Z,1018.08
2018-11-04T06:40:39.348Z,1018.08
2018-11-04T06:41:39.370Z,1018.08
2018-11-04T06:42:39.382Z,1018.11
2018-11-04T06:43:39.405Z,1018.09
2018-11-04T06:45:39.440Z,1018.11
2018-11-04T06:46:39.454Z,1018.12
2018-11-04T06:47:39.595Z,1018.15
2018-11-04T06:48:39.490Z,1018.14
2018-11-04T06:49:39.513Z,1018.16
2018-11-04T06:50:39.524Z,1018.13
2018-11-04T06:51:39.545Z,1018.08
2018-11-04T06:52:39.564Z,1018.16
2018-11-04T06:53:39.582Z,1018.09
2018-11-04T06:54:39.595Z,1018.13
2018-11-04T06:55:39.617Z,1018.13
2018-11-04T06:56:39.631Z,1018.09
2018-11-04T06:57:39.651Z,1018.12
2018-11-04T06:58:39.666Z,1018.13
2018-11-04T07:00:39.707Z,1018.08
2018-11-04T07:01:39.723Z,1018.08
2018-11-04T07:02:39.749Z,1018.08
2018-11-04T07:03:39.756Z,1018.07
2018-11-04T07:04:39.779Z,1018.07
2018-11-04T07:05:39.791Z,1018.09
2018-11-04T07:06:39.813Z,1018
2018-11-04T07:07:39.831Z,1018.03
2018-11-04T07:08:39.844Z,1018.02
2018-11-04T07:09:39.862Z,1018.07
2018-11-04T07:10:39.881Z,1018.04
2018-11-04T07:11:39.902Z,1018.01
2018-11-04T07:12:39.917Z,1018.06
2018-11-04T07:13:39.938Z,1018.02
2018-11-04T07:14:39.956Z,1018
2018-11-04T07:15:39.974Z,1018.02
2018-11-04T07:16:39.985Z,1018.04
2018-11-04T07:17:40.009Z,1018.02
2018-11-04T07:18:40.022Z,1018.03
2018-11-04T07:19:40.057Z,1017.99
2018-11-04T07:20:40.061Z,1018
2018-11-04T07:21:40.080Z,1017.99
2018-11-04T07:22:40.094Z,1018
2018-11-04T07:23:40.116Z,1018
2018-11-04T07:24:40.127Z,1017.97
2018-11-04T07:25:40.267Z,1017.97
2018-11-04T07:26:40.166Z,1017.98
2018-11-04T07:27:40.183Z,1017.99
2018-11-04T07:28:40.205Z,1018
2018-11-04T07:29:40.223Z,1017.98
2018-11-04T07:30:40.240Z,1017.98
2018-11-04T07:32:40.276Z,1017.92
2018-11-04T07:33:40.294Z,1017.95
2018-11-04T07:34:40.312Z,1017.97
2018-11-04T07:35:40.326Z,1017.94
2018-11-04T07:36:40.348Z,1017.98
2018-11-04T07:37:40.366Z,1017.94
2018-11-04T07:38:40.378Z,1017.93
2018-11-04T07:39:40.401Z,1017.93
2018-11-04T07:40:40.420Z,1017.93
2018-11-04T07:41:40.437Z,1017.89
2018-11-04T07:42:40.452Z,1017.93
2018-11-04T07:43:40.478Z,1017.91
2018-11-04T07:44:40.492Z,1017.91
2018-11-04T07:45:40.505Z,1017.9
2018-11-04T07:46:40.527Z,1017.88
2018-11-04T07:48:40.560Z,1017.86
2018-11-04T07:49:40.583Z,1017.91
2018-11-04T07:50:40.729Z,1017.9
2018-11-04T07:51:40.725Z,1017.86
2018-11-04T07:52:40.632Z,1017.89
2018-11-04T07:53:40.653Z,1017.89
2018-11-04T07:54:40.690Z,1017.84
2018-11-04T07:55:40.691Z,1017.86
2018-11-04T07:56:40.707Z,1017.85
2018-11-04T07:57:40.722Z,1017.85
2018-11-04T07:58:40.745Z,1017.89
2018-11-04T07:59:40.760Z,1017.85
2018-11-04T08:00:40.798Z,1017.83
2018-11-04T08:01:40.794Z,1017.86
2018-11-04T08:02:40.819Z,1017.86
2018-11-04T08:04:40.849Z,1017.84
2018-11-04T08:05:40.871Z,1017.81
2018-11-04T08:06:40.886Z,1017.78
2018-11-04T08:07:40.909Z,1017.77
2018-11-04T08:08:40.922Z,1017.73
2018-11-04T08:09:40.944Z,1017.75
2018-11-04T08:10:40.957Z,1017.69
2018-11-04T08:11:40.981Z,1017.69
2018-11-04T08:12:40.998Z,1017.68
2018-11-04T08:13:41.125Z,1017.62
2018-11-04T08:14:41.029Z,1017.61
2018-11-04T08:15:41.057Z,1017.6
2018-11-04T08:16:41.067Z,1017.64
2018-11-04T08:17:41.090Z,1017.55
2018-11-04T08:18:41.103Z,1017.58
2018-11-04T08:20:41.140Z,1017.58
2018-11-04T08:21:41.156Z,1017.56
2018-11-04T08:22:41.186Z,1017.55
2018-11-04T08:23:41.193Z,1017.58
2018-11-04T08:24:41.217Z,1017.56
2018-11-04T08:25:41.231Z,1017.6
2018-11-04T08:26:41.252Z,1017.6
2018-11-04T08:27:41.337Z,1017.58
2018-11-04T08:28:41.285Z,1017.52
2018-11-04T08:29:41.303Z,1017.54
2018-11-04T08:30:41.326Z,1017.52
2018-11-04T08:31:41.346Z,1017.5
2018-11-04T08:32:41.358Z,1017.48
2018-11-04T08:33:41.381Z,1017.48
2018-11-04T08:35:41.418Z,1017.48
2018-11-04T08:36:41.431Z,1017.44
2018-11-04T08:37:41.457Z,1017.44
2018-11-04T08:38:41.468Z,1017.39
2018-11-04T08:39:41.583Z,1017.38
2018-11-04T08:40:41.510Z,1017.38
2018-11-04T08:41:41.531Z,1017.35
2018-11-04T08:42:41.541Z,1017.37
2018-11-04T08:43:41.564Z,1017.38
2018-11-04T08:44:41.580Z,1017.41
2018-11-04T08:45:41.660Z,1017.39
2018-11-04T08:46:41.723Z,1017.37
2018-11-04T08:47:41.638Z,1017.33
2018-11-04T08:48:41.658Z,1017.26
2018-11-04T08:49:41.676Z,1017.26
2018-11-04T08:50:41.693Z,1017.27
2018-11-04T08:51:41.711Z,1017.24
2018-11-04T08:52:41.859Z,1017.2
2018-11-04T08:53:41.746Z,1017.2
2018-11-04T08:54:41.768Z,1017.2
2018-11-04T08:55:41.783Z,1017.17
2018-11-04T08:56:41.805Z,1017.15
2018-11-04T08:57:41.820Z,1017.18
2018-11-04T08:58:41.837Z,1017.17
2018-11-04T08:59:41.856Z,1017.15
2018-11-04T09:00:41.880Z,1017.13
2018-11-04T09:01:41.901Z,1017.17
2018-11-04T09:02:41.916Z,1017.13
2018-11-04T09:03:41.936Z,1017.1
2018-11-04T09:04:41.955Z,1017.1
2018-11-04T09:05:41.967Z,1017.05
2018-11-04T09:07:42.004Z,1017.07
2018-11-04T09:08:42.025Z,1017.05
2018-11-04T09:09:42.041Z,1017.1
2018-11-04T09:10:42.065Z,1017.08
2018-11-04T09:11:42.084Z,1017.11
2018-11-04T09:12:42.099Z,1017.13
2018-11-04T09:13:42.122Z,1017.11
2018-11-04T09:14:42.135Z,1017.13
2018-11-04T09:15:42.159Z,1017.14
2018-11-04T09:16:42.173Z,1017.14
2018-11-04T09:17:42.196Z,1017.11
2018-11-04T09:18:42.211Z,1017.09
2018-11-04T09:19:42.231Z,1017.09
2018-11-04T09:20:42.251Z,1017.09
2018-11-04T09:21:42.365Z,1017.11
2018-11-04T09:23:42.406Z,1017.1
2018-11-04T09:24:42.321Z,1017.11
2018-11-04T09:25:42.350Z,1017.03
2018-11-04T09:26:42.361Z,1017.07
2018-11-04T09:27:42.383Z,1017.08
2018-11-04T09:28:42.402Z,1017.06
2018-11-04T09:29:42.417Z,1017.02
2018-11-04T09:30:42.441Z,1017.02
2018-11-04T09:31:42.455Z,1017.06
2018-11-04T09:32:42.474Z,1017.04
2018-11-04T09:33:42.496Z,1017.02
2018-11-04T09:34:42.657Z,1017.04
2018-11-04T09:35:42.785Z,1017.04
2018-11-04T09:36:42.549Z,1016.98
2018-11-04T09:37:42.573Z,1016.96
2018-11-04T09:39:42.605Z,1017.01
2018-11-04T09:40:42.629Z,1017
2018-11-04T09:41:42.643Z,1016.97
2018-11-04T09:42:42.667Z,1017
2018-11-04T09:43:42.681Z,1016.94
2018-11-04T09:44:42.704Z,1016.94
2018-11-04T09:45:42.725Z,1016.95
2018-11-04T09:46:42.742Z,1016.94
2018-11-04T09:47:42.758Z,1016.98
2018-11-04T09:48:42.802Z,1016.95
2018-11-04T09:49:42.842Z,1016.97
2018-11-04T09:50:42.818Z,1016.97
2018-11-04T09:51:42.838Z,1016.99
2018-11-04T09:52:42.853Z,1016.96
2018-11-04T09:53:42.876Z,1016.95
2018-11-04T09:55:42.910Z,1016.9
2018-11-04T09:56:42.975Z,1016.91
2018-11-04T09:57:42.949Z,1016.88
2018-11-04T09:58:42.972Z,1016.85
2018-11-04T09:59:42.986Z,1016.82
2018-11-04T10:00:43.012Z,1016.84
2018-11-04T10:01:43.026Z,1016.87
2018-11-04T10:02:43.048Z,1016.82
2018-11-04T10:03:43.063Z,1016.81
2018-11-04T10:04:43.086Z,1016.83
2018-11-04T10:05:43.099Z,1016.8
2018-11-04T10:06:43.120Z,1016.8
2018-11-04T10:07:43.141Z,1016.82
2018-11-04T10:08:43.162Z,1016.82
2018-11-04T10:10:43.195Z,1016.78
2018-11-04T10:11:43.219Z,1016.77
2018-11-04T10:12:43.235Z,1016.74
2018-11-04T10:13:43.254Z,1016.72
2018-11-04T10:14:43.280Z,1016.77
2018-11-04T10:15:43.291Z,1016.73
2018-11-04T10:16:43.316Z,1016.73
2018-11-04T10:17:43.329Z,1016.73
2018-11-04T10:18:43.418Z,1016.75
2018-11-04T10:19:43.534Z,1016.76
2018-11-04T10:20:43.855Z,1016.7
2018-11-04T10:21:43.413Z,1016.7
2018-11-04T10:22:43.425Z,1016.76
2018-11-04T10:23:43.448Z,1016.75
2018-11-04T10:24:43.464Z,1016.74
2018-11-04T10:25:43.486Z,1016.74
2018-11-04T10:26:43.501Z,1016.69
2018-11-04T10:27:43.526Z,1016.68
2018-11-04T10:28:43.548Z,1016.66
2018-11-04T10:29:43.561Z,1016.63
2018-11-04T10:30:43.578Z,1016.64
2018-11-04T10:31:43.601Z,1016.55
2018-11-04T10:32:43.616Z,1016.55
2018-11-04T10:33:43.639Z,1016.5
2018-11-04T10:34:43.654Z,1016.53
2018-11-04T10:35:43.677Z,1016.52
2018-11-04T10:36:43.694Z,1016.52
2018-11-04T10:37:43.715Z,1016.51
2018-11-04T10:38:43.735Z,1016.49
2018-11-04T10:39:43.754Z,1016.46
2018-11-04T10:40:43.772Z,1016.46
2018-11-04T10:42:43.810Z,1016.46
2018-11-04T10:43:43.827Z,1016.43
2018-11-04T10:44:43.844Z,1016.41
2018-11-04T10:45:43.868Z,1016.35
2018-11-04T10:46:43.983Z,1016.32
2018-11-04T10:47:43.909Z,1016.3
2018-11-04T10:48:43.921Z,1016.27
2018-11-04T10:49:43.957Z,1016.24
2018-11-04T10:50:43.960Z,1016.21
2018-11-04T10:51:43.984Z,1016.22
2018-11-04T10:52:43.998Z,1016.2
2018-11-04T10:53:44.033Z,1016.18
2018-11-04T10:54:44.037Z,1016.18
2018-11-04T10:55:44.067Z,1016.15
2018-11-04T10:56:44.074Z,1016.17
2018-11-04T10:58:44.146Z,1016.15
2018-11-04T10:59:44.137Z,1016.11
2018-11-04T11:00:44.152Z,1016.12
2018-11-04T11:01:44.172Z,1016.14
2018-11-04T11:02:44.197Z,1016.16
2018-11-04T11:03:44.210Z,1016.12
2018-11-04T11:04:44.386Z,1016.06
2018-11-04T11:05:44.251Z,1016.07
2018-11-04T11:06:44.273Z,1016.09
2018-11-04T11:07:44.289Z,1016.04
2018-11-04T11:08:44.311Z,1016.04
2018-11-04T11:09:44.329Z,1016.11
2018-11-04T11:10:44.383Z,1016.1
2018-11-04T11:11:44.365Z,1016.11
2018-11-04T11:12:44.388Z,1016.06
2018-11-04T11:14:44.434Z,1016.09
2018-11-04T11:15:44.446Z,1016.08
2018-11-04T11:16:44.490Z,1015.99
2018-11-04T11:17:44.481Z,1015.98
2018-11-04T11:18:44.501Z,1015.97
2018-11-04T11:19:44.526Z,1015.93
2018-11-04T11:20:44.539Z,1015.9
2018-11-04T11:21:44.562Z,1015.88
2018-11-04T11:22:44.686Z,1015.87
2018-11-04T11:23:44.597Z,1015.87
2018-11-04T11:24:44.620Z,1015.87
2018-11-04T11:25:44.639Z,1015.8
2018-11-04T11:26:44.655Z,1015.81
2018-11-04T11:27:44.674Z,1015.8
2018-11-04T11:28:44.696Z,1015.74
2018-11-04T11:30:44.738Z,1015.71
2018-11-04T11:31:44.757Z,1015.71
2018-11-04T11:32:44.775Z,1015.7
2018-11-04T11:33:44.790Z,1015.69
2018-11-04T11:34:44.814Z,1015.62
2018-11-04T11:35:44.846Z,1015.65
2018-11-04T11:36:44.848Z,1015.65
2018-11-04T11:37:44.890Z,1015.62
2018-11-04T11:38:44.887Z,1015.61
2018-11-04T11:39:44.911Z,1015.65
2018-11-04T11:40:44.926Z,1015.61
2018-11-04T11:41:44.949Z,1015.6
2018-11-04T11:42:44.966Z,1015.55
2018-11-04T11:43:45.004Z,1015.54
2018-11-04T11:45:45.028Z,1015.49
2018-11-04T11:46:45.047Z,1015.48
2018-11-04T11:47:45.064Z,1015.47
2018-11-04T11:48:45.087Z,1015.47
2018-11-04T11:49:45.105Z,1015.43
2018-11-04T11:50:45.121Z,1015.43
2018-11-04T11:51:45.148Z,1015.38
2018-11-04T11:52:45.279Z,1015.4
2018-11-04T11:53:45.178Z,1015.34
2018-11-04T11:54:45.198Z,1015.34
2018-11-04T11:55:45.222Z,1015.37
2018-11-04T11:56:45.248Z,1015.36
2018-11-04T11:57:45.255Z,1015.37
2018-11-04T11:58:45.284Z,1015.36
2018-11-04T11:59:45.295Z,1015.42
2018-11-04T12:00:45.329Z,1015.39
2018-11-04T12:01:45.334Z,1015.4
2018-11-04T12:02:45.364Z,1015.38
2018-11-04T12:03:45.373Z,1015.43
2018-11-04T12:04:45.396Z,1015.45
2018-11-04T12:05:45.412Z,1015.44
2018-11-04T12:06:45.431Z,1015.35
2018-11-04T12:07:45.455Z,1015.38
2018-11-04T12:08:45.475Z,1015.39
2018-11-04T12:09:45.497Z,1015.35
2018-11-04T12:10:45.508Z,1015.29
2018-11-04T12:11:45.532Z,1015.26
2018-11-04T12:12:45.547Z,1015.19
2018-11-04T12:13:45.573Z,1015.21
2018-11-04T12:14:45.586Z,1015.19
2018-11-04T12:15:45.609Z,1015.23
2018-11-04T12:17:45.670Z,1015.19
2018-11-04T12:18:45.673Z,1015.16
2018-11-04T12:19:45.687Z,1015.12
2018-11-04T12:20:45.703Z,1015.06
2018-11-04T12:21:45.729Z,1015.06
2018-11-04T12:22:45.744Z,1015.13
2018-11-04T12:23:45.839Z,1015.16
2018-11-04T12:24:45.785Z,1015.14
2018-11-04T12:25:45.805Z,1015.13
2018-11-04T12:26:45.823Z,1015.11
2018-11-04T12:27:45.843Z,1015.09
2018-11-04T12:28:45.858Z,1015.08
2018-11-04T12:29:45.878Z,1015.01
2018-11-04T12:30:45.907Z,1015.06
2018-11-04T12:31:45.916Z,1015.06
2018-11-04T12:33:45.957Z,1015.03
2018-11-04T12:34:45.980Z,1015
2018-11-04T12:35:45.993Z,1014.97
2018-11-04T12:36:46.017Z,1014.92
2018-11-04T12:37:46.033Z,1014.94
2018-11-04T12:38:46.057Z,1014.93
2018-11-04T12:39:46.128Z,1014.92
2018-11-04T12:40:46.093Z,1014.87
2018-11-04T12:41:46.116Z,1014.85
2018-11-04T12:42:46.134Z,1014.84
2018-11-04T12:43:46.156Z,1014.83
2018-11-04T12:44:46.175Z,1014.8
2018-11-04T12:45:46.365Z,1014.77
2018-11-04T12:46:46.210Z,1014.76
2018-11-04T12:47:46.233Z,1014.75
2018-11-04T12:49:46.272Z,1014.7